createdAt,value
2023-01-13T00:01:29.228Z,99888.16
2023-01-13T00:04:01.202Z,99880.28
2023-01-13T00:06:29.733Z,99886.38
2023-01-13T00:08:57.893Z,99895.72
2023-01-13T00:11:26.356Z,99891.28
2023-01-13T00:13:53.929Z,99889.63
2023-01-13T00:16:21.411Z,99887.00
2023-01-13T00:18:51.224Z,99892.34
2023-01-13T00:21:23.893Z,99893.19
2023-01-13T00:23:54.119Z,99890.69
2023-01-13T00:26:24.406Z,99887.22
2023-01-13T00:28:55.650Z,99885.56
2023-01-13T00:31:22.944Z,99882.09
2023-01-13T00:33:51.263Z,99886.44
2023-01-13T00:36:22.517Z,99883.88
2023-01-13T00:38:50.009Z,99881.03
2023-01-13T00:41:20.110Z,99881.84
2023-01-13T00:43:47.832Z,99877.44
2023-01-13T00:46:17.045Z,99870.41
2023-01-13T00:48:44.524Z,99878.34
2023-01-13T00:51:17.768Z,99864.88
2023-01-13T00:53:47.317Z,99859.84
2023-01-13T00:56:38.576Z,99872.19
2023-01-13T00:59:07.076Z,99868.44
2023-01-13T01:01:34.497Z,99874.53
2023-01-13T01:04:02.043Z,99864.16
2023-01-13T01:06:29.501Z,99870.25
2023-01-13T01:08:57.499Z,99874.66
2023-01-13T01:11:27.364Z,99876.22
2023-01-13T01:13:56.174Z,99882.53
2023-01-13T01:16:25.557Z,99873.81
2023-01-13T01:18:53.805Z,99870.84
2023-01-13T01:21:21.924Z,99873.72
2023-01-13T01:23:49.199Z,99872.03
2023-01-13T01:26:27.198Z,99862.38
2023-01-13T01:28:55.091Z,99872.09
2023-01-13T01:31:31.609Z,99878.94
2023-01-13T01:33:59.948Z,99879.97
2023-01-13T01:36:29.945Z,99874.59
2023-01-13T01:38:58.597Z,99864.72
2023-01-13T01:41:28.501Z,99856.97
2023-01-13T01:44:07.569Z,99866.69
2023-01-13T01:46:38.774Z,99869.47
2023-01-13T01:49:18.577Z,99866.00
2023-01-13T01:51:58.731Z,99854.75
2023-01-13T01:54:49.588Z,99871.25
2023-01-13T01:57:24.001Z,99853.66
2023-01-13T01:59:51.354Z,99854.56
2023-01-13T02:02:19.011Z,99850.94
2023-01-13T02:04:51.222Z,99849.94
2023-01-13T02:07:31.586Z,99848.44
2023-01-13T02:10:06.113Z,99852.00
2023-01-13T02:12:34.155Z,99842.34
2023-01-13T02:15:13.680Z,99843.97
2023-01-13T02:17:53.898Z,99842.44
2023-01-13T02:20:39.112Z,99848.38
2023-01-13T02:23:51.747Z,99841.44
2023-01-13T02:26:39.935Z,99835.63
2023-01-13T02:29:42.285Z,99833.75
2023-01-13T02:32:24.844Z,99838.88
2023-01-13T02:35:26.419Z,99839.66
2023-01-13T02:37:54.629Z,99839.38
2023-01-13T02:40:27.682Z,99836.75
2023-01-13T02:43:25.798Z,99842.00
2023-01-13T02:46:20.939Z,99832.34
2023-01-13T02:48:49.670Z,99830.78
2023-01-13T02:51:19.109Z,99837.16
2023-01-13T02:53:56.808Z,99824.31
2023-01-13T02:56:25.296Z,99828.50
2023-01-13T02:58:54.247Z,99824.16
2023-01-13T03:01:21.991Z,99826.94
2023-01-13T03:03:50.136Z,99825.16
2023-01-13T03:06:37.437Z,99829.34
2023-01-13T03:09:27.223Z,99805.91
2023-01-13T03:12:03.947Z,99802.31
2023-01-13T03:14:41.458Z,99797.81
2023-01-13T03:17:40.782Z,99802.78
2023-01-13T03:20:15.938Z,99812.44
2023-01-13T03:22:51.671Z,99801.09
2023-01-13T03:25:24.298Z,99805.50
2023-01-13T03:28:02.315Z,99808.19
2023-01-13T03:30:41.172Z,99813.53
2023-01-13T03:33:26.895Z,99803.34
2023-01-13T03:36:02.524Z,99807.97
2023-01-13T03:38:38.626Z,99809.88
2023-01-13T03:41:28.557Z,99806.75
2023-01-13T03:44:24.791Z,99823.44
2023-01-13T03:47:10.175Z,99818.03
2023-01-13T03:50:14.915Z,99814.50
2023-01-13T03:52:51.987Z,99820.25
2023-01-13T03:55:22.982Z,99817.41
2023-01-13T03:58:03.686Z,99813.09
2023-01-13T04:00:38.937Z,99793.91
2023-01-13T04:03:09.215Z,99802.16
2023-01-13T04:05:40.268Z,99800.41
2023-01-13T04:08:23.297Z,99791.97
2023-01-13T04:11:02.200Z,99799.78
2023-01-13T04:13:32.151Z,99800.66
2023-01-13T04:16:00.669Z,99800.19
2023-01-13T04:18:30.487Z,99805.50
2023-01-13T04:21:00.599Z,99806.66
2023-01-13T04:23:28.695Z,99813.09
2023-01-13T04:25:56.524Z,99812.16
2023-01-13T04:28:23.846Z,99819.69
2023-01-13T04:30:51.402Z,99822.19
2023-01-13T04:33:19.569Z,99813.06
2023-01-13T04:35:47.822Z,99815.56
2023-01-13T04:38:16.943Z,99826.56
2023-01-13T04:40:44.244Z,99826.00
2023-01-13T04:43:11.752Z,99819.69
2023-01-13T04:45:39.191Z,99816.00
2023-01-13T04:48:06.695Z,99816.28
2023-01-13T04:50:34.139Z,99825.69
2023-01-13T04:53:01.350Z,99828.34
2023-01-13T04:55:29.066Z,99830.78
2023-01-13T04:57:56.319Z,99822.69
2023-01-13T05:00:24.033Z,99825.31
2023-01-13T05:02:52.149Z,99820.41
2023-01-13T05:05:19.813Z,99828.09
2023-01-13T05:07:47.266Z,99831.78
2023-01-13T05:10:15.222Z,99830.16
2023-01-13T05:13:01.157Z,99832.91
2023-01-13T05:15:47.052Z,99829.06
2023-01-13T05:18:14.636Z,99827.44
2023-01-13T05:20:42.019Z,99825.31
2023-01-13T05:23:27.516Z,99822.88
2023-01-13T05:25:54.789Z,99822.69
2023-01-13T05:28:22.052Z,99834.91
2023-01-13T05:30:49.649Z,99834.69
2023-01-13T05:33:20.869Z,99839.72
2023-01-13T05:35:48.785Z,99839.03
2023-01-13T05:38:18.166Z,99841.72
2023-01-13T05:41:04.441Z,99847.00
2023-01-13T05:43:33.018Z,99843.75
2023-01-13T05:46:06.911Z,99840.56
2023-01-13T05:48:39.273Z,99835.13
2023-01-13T05:51:08.552Z,99834.31
2023-01-13T05:53:36.058Z,99838.88
2023-01-13T05:56:07.158Z,99851.06
2023-01-13T05:58:34.865Z,99849.25
2023-01-13T06:01:04.102Z,99835.81
2023-01-13T06:03:31.364Z,99841.72
2023-01-13T06:06:01.685Z,99840.72
2023-01-13T06:08:29.522Z,99837.31
2023-01-13T06:10:56.901Z,99853.72
2023-01-13T06:13:25.428Z,99848.28
2023-01-13T06:15:56.071Z,99858.91
2023-01-13T06:18:23.408Z,99861.59
2023-01-13T06:20:50.603Z,99868.78
2023-01-13T06:23:17.893Z,99853.00
2023-01-13T06:26:02.334Z,99852.25
2023-01-13T06:28:29.604Z,99869.72
2023-01-13T06:31:01.300Z,99861.69
2023-01-13T06:33:33.333Z,99859.06
2023-01-13T06:36:04.106Z,99834.97
2023-01-13T06:38:34.164Z,99829.34
2023-01-13T06:41:01.411Z,99839.88
2023-01-13T06:43:29.178Z,99848.97
2023-01-13T06:45:57.283Z,99850.94
2023-01-13T06:48:27.942Z,99863.31
2023-01-13T06:50:55.368Z,99866.06
2023-01-13T06:53:23.107Z,99849.31
2023-01-13T06:55:50.486Z,99854.50
2023-01-13T06:58:18.119Z,99852.72
2023-01-13T07:00:49.673Z,99857.91
2023-01-13T07:03:17.745Z,99861.38
2023-01-13T07:05:52.330Z,99849.09
2023-01-13T07:08:19.566Z,99834.88
2023-01-13T07:10:47.005Z,99807.06
2023-01-13T07:13:32.948Z,99830.72
2023-01-13T07:16:07.888Z,99856.97
2023-01-13T07:18:35.828Z,99848.13
2023-01-13T07:21:06.200Z,99820.19
2023-01-13T07:23:36.441Z,99827.28
2023-01-13T07:26:04.589Z,99849.94
2023-01-13T07:28:32.728Z,99848.97
2023-01-13T07:31:00.614Z,99833.41
2023-01-13T07:33:28.412Z,99858.94
2023-01-13T07:36:03.554Z,99870.13
2023-01-13T07:38:31.640Z,99875.72
2023-01-13T07:41:18.870Z,99873.28
2023-01-13T07:43:46.048Z,99875.34
2023-01-13T07:46:13.354Z,99860.69
2023-01-13T07:48:40.641Z,99869.63
2023-01-13T07:51:10.032Z,99876.31
2023-01-13T07:53:37.494Z,99880.72
2023-01-13T07:56:05.722Z,99896.69
2023-01-13T07:58:34.521Z,99901.56
2023-01-13T08:01:14.066Z,99901.34
2023-01-13T08:03:41.604Z,99892.63
2023-01-13T08:06:10.079Z,99884.03
2023-01-13T08:08:37.529Z,99911.00
2023-01-13T08:11:06.542Z,99919.94
2023-01-13T08:13:34.070Z,99922.44
2023-01-13T08:16:05.173Z,99930.19
2023-01-13T08:18:33.297Z,99932.16
2023-01-13T08:21:09.120Z,99926.75
2023-01-13T08:23:36.434Z,99914.44
2023-01-13T08:26:08.799Z,99911.81
2023-01-13T08:28:37.390Z,99917.94
2023-01-13T08:31:10.269Z,99920.41
2023-01-13T08:33:38.103Z,99917.63
2023-01-13T08:36:07.243Z,99907.19
2023-01-13T08:38:35.421Z,99900.34
2023-01-13T08:41:11.936Z,99918.66
2023-01-13T08:43:39.252Z,99933.53
2023-01-13T08:46:06.704Z,99951.84
2023-01-13T08:48:34.425Z,99943.97
2023-01-13T08:51:06.841Z,99936.88
2023-01-13T08:53:35.699Z,99948.41
2023-01-13T08:56:06.555Z,99911.84
2023-01-13T08:58:34.030Z,99901.47
2023-01-13T09:01:06.132Z,99857.03
2023-01-13T09:03:34.509Z,99785.09
2023-01-13T09:06:02.032Z,99822.94
2023-01-13T09:08:29.238Z,99881.13
2023-01-13T09:10:56.951Z,99902.19
2023-01-13T09:13:24.428Z,99922.34
2023-01-13T09:15:52.531Z,99930.69
2023-01-13T09:18:32.074Z,99931.50
2023-01-13T09:20:59.883Z,99926.38
2023-01-13T09:23:29.203Z,99929.19
2023-01-13T09:25:57.409Z,99931.94
2023-01-13T09:28:24.641Z,99927.41
2023-01-13T09:30:52.001Z,99921.50
2023-01-13T09:33:39.912Z,99898.19
2023-01-13T09:36:07.631Z,99896.63
2023-01-13T09:38:35.030Z,99889.47
2023-01-13T09:41:22.261Z,99902.88
2023-01-13T09:43:54.102Z,99923.94
2023-01-13T09:46:43.516Z,99937.22
2023-01-13T09:49:22.889Z,99935.56
2023-01-13T09:52:09.375Z,99939.03
2023-01-13T09:54:45.397Z,99939.25
2023-01-13T09:57:15.073Z,99948.69
2023-01-13T09:59:42.658Z,99958.94
2023-01-13T10:02:40.704Z,99956.44
2023-01-13T10:05:11.070Z,99963.72
2023-01-13T10:07:45.092Z,99960.25
2023-01-13T10:10:18.491Z,99951.09
2023-01-13T10:13:05.636Z,99950.22
2023-01-13T10:15:34.301Z,99942.25
2023-01-13T10:18:19.386Z,99935.19
2023-01-13T10:21:13.088Z,99931.53
2023-01-13T10:24:14.744Z,99928.31
2023-01-13T10:27:00.436Z,99934.38
2023-01-13T10:29:30.328Z,99935.19
2023-01-13T10:31:59.665Z,99943.69
2023-01-13T10:34:27.664Z,99940.19
2023-01-13T10:37:04.211Z,99944.97
2023-01-13T10:39:43.747Z,99945.75
2023-01-13T10:42:17.682Z,99951.25
2023-01-13T10:45:03.778Z,99946.97
2023-01-13T10:47:33.367Z,99948.72
2023-01-13T10:50:16.199Z,99938.56
2023-01-13T10:53:01.806Z,99950.38
2023-01-13T10:55:38.890Z,99944.22
2023-01-13T10:58:18.075Z,99936.94
2023-01-13T11:00:45.426Z,99933.28
2023-01-13T11:03:16.792Z,99943.03
2023-01-13T11:05:59.665Z,99947.44
2023-01-13T11:08:29.326Z,99945.00
2023-01-13T11:10:58.574Z,99932.56
2023-01-13T11:13:27.422Z,99940.41
2023-01-13T11:16:05.682Z,99946.28
2023-01-13T11:19:02.146Z,99935.63
2023-01-13T11:21:41.216Z,99942.03
2023-01-13T11:24:18.962Z,99946.81
2023-01-13T11:26:55.924Z,99944.88
2023-01-13T11:29:46.405Z,99949.16
2023-01-13T11:32:19.224Z,99950.28
2023-01-13T11:34:52.612Z,99951.72
2023-01-13T11:37:31.841Z,99950.59
2023-01-13T11:40:06.789Z,99962.16
2023-01-13T11:43:20.179Z,99956.38
2023-01-13T11:45:51.168Z,99956.56
2023-01-13T11:48:21.269Z,99947.75
2023-01-13T11:50:55.211Z,99958.13
2023-01-13T11:53:46.725Z,99957.13
2023-01-13T11:56:52.736Z,99958.78
2023-01-13T11:59:31.949Z,99967.50
2023-01-13T12:01:59.017Z,99957.41
2023-01-13T12:04:53.597Z,99952.94
2023-01-13T12:07:42.122Z,99962.88
2023-01-13T12:10:46.339Z,99962.94
2023-01-13T12:13:24.159Z,99956.13
2023-01-13T12:16:02.905Z,99979.91
2023-01-13T12:18:48.318Z,99950.94
2023-01-13T12:21:27.191Z,99949.84
2023-01-13T12:24:09.477Z,99964.94
2023-01-13T12:26:41.447Z,99964.25
2023-01-13T12:29:19.009Z,99974.03
2023-01-13T12:31:49.011Z,99956.50
2023-01-13T12:34:43.709Z,99962.00
2023-01-13T12:37:21.631Z,99957.19
2023-01-13T12:40:11.997Z,99967.59
2023-01-13T12:43:23.266Z,99960.31
2023-01-13T12:45:50.495Z,99964.25
2023-01-13T12:48:59.274Z,99967.53
2023-01-13T12:51:28.860Z,99967.31
2023-01-13T12:53:56.968Z,99969.03
2023-01-13T12:56:39.002Z,99968.09
2023-01-13T12:59:21.534Z,99978.63
2023-01-13T13:01:51.976Z,99973.63
2023-01-13T13:04:43.385Z,99970.63
2023-01-13T13:07:23.565Z,99969.00
2023-01-13T13:09:53.350Z,99976.03
2023-01-13T13:13:07.236Z,99974.28
2023-01-13T13:15:35.650Z,99979.94
2023-01-13T13:18:08.860Z,99973.22
2023-01-13T13:21:04.317Z,99979.19
2023-01-13T13:23:37.099Z,99979.19
2023-01-13T13:26:24.862Z,99982.13
2023-01-13T13:29:16.384Z,99986.94
2023-01-13T13:32:17.364Z,99971.63
2023-01-13T13:34:56.844Z,99980.75
2023-01-13T13:38:08.563Z,99994.41
2023-01-13T13:41:01.619Z,99988.75
2023-01-13T13:43:48.661Z,99989.47
2023-01-13T13:46:48.149Z,99988.16
2023-01-13T13:49:20.711Z,99993.75
2023-01-13T13:52:15.444Z,99983.63
2023-01-13T13:54:47.588Z,99987.19
2023-01-13T13:57:20.046Z,99990.06
2023-01-13T13:59:50.773Z,99995.06
2023-01-13T14:02:38.424Z,99995.00
2023-01-13T14:05:18.569Z,100001.03
2023-01-13T14:07:48.342Z,100005.44
2023-01-13T14:10:33.485Z,100007.88
2023-01-13T14:13:03.114Z,100006.16
2023-01-13T14:15:36.083Z,100011.28
2023-01-13T14:18:13.593Z,100012.41
2023-01-13T14:20:41.507Z,100014.38
2023-01-13T14:23:18.778Z,100004.72
2023-01-13T14:25:51.025Z,100002.88
2023-01-13T14:28:23.518Z,100002.16
2023-01-13T14:30:51.674Z,100012.41
2023-01-13T14:33:22.316Z,100011.47
2023-01-13T14:36:16.405Z,100023.41
2023-01-13T14:38:47.626Z,100024.59
2023-01-13T14:41:24.324Z,100027.56
2023-01-13T14:43:54.287Z,100018.84
2023-01-13T14:46:23.275Z,100019.00
2023-01-13T14:48:59.508Z,100020.91
2023-01-13T14:51:29.730Z,100009.66
2023-01-13T14:53:57.860Z,100019.31
2023-01-13T14:56:43.990Z,100017.78
2023-01-13T14:59:40.942Z,100021.81
2023-01-13T15:02:40.840Z,100028.69
2023-01-13T15:05:20.181Z,100034.31
2023-01-13T15:08:05.372Z,100029.41
2023-01-13T15:10:54.714Z,100038.25
2023-01-13T15:13:35.653Z,100035.47
2023-01-13T15:16:27.812Z,100035.72
2023-01-13T15:18:56.048Z,100026.38
2023-01-13T15:21:26.638Z,100036.16
2023-01-13T15:23:53.887Z,100028.50
2023-01-13T15:26:22.242Z,100029.41
2023-01-13T15:28:50.638Z,100039.59
2023-01-13T15:31:18.225Z,100041.31
2023-01-13T15:33:45.510Z,100047.47
2023-01-13T15:36:26.428Z,100044.97
2023-01-13T15:38:53.991Z,100049.25
2023-01-13T15:41:41.524Z,100051.91
2023-01-13T15:44:30.539Z,100061.28
2023-01-13T15:46:58.715Z,100059.22
2023-01-13T15:49:28.265Z,100055.72
2023-01-13T15:51:55.434Z,100055.63
2023-01-13T15:54:24.543Z,100061.50
2023-01-13T15:56:52.574Z,100054.66
2023-01-13T15:59:22.438Z,100056.44
2023-01-13T16:01:49.694Z,100071.25
2023-01-13T16:04:16.985Z,100060.34
2023-01-13T16:06:44.314Z,100074.34
2023-01-13T16:09:15.093Z,100076.69
2023-01-13T16:11:42.710Z,100081.50
2023-01-13T16:14:12.695Z,100080.31
2023-01-13T16:16:44.846Z,100079.50
2023-01-13T16:19:15.041Z,100073.56
2023-01-13T16:21:42.545Z,100085.72
2023-01-13T16:24:09.823Z,100085.56
2023-01-13T16:26:38.902Z,100091.91
2023-01-13T16:29:08.107Z,100098.34
2023-01-13T16:31:35.553Z,100087.06
2023-01-13T16:34:03.622Z,100096.56
2023-01-13T16:36:33.616Z,100084.66
2023-01-13T16:39:01.405Z,100098.88
2023-01-13T16:41:28.699Z,100112.78
2023-01-13T16:43:55.942Z,100104.09
2023-01-13T16:46:28.839Z,100101.38
2023-01-13T16:48:58.035Z,100116.13
2023-01-13T16:51:25.417Z,100117.00
2023-01-13T16:53:52.853Z,100112.00
2023-01-13T16:56:31.434Z,100125.00
2023-01-13T16:59:10.271Z,100120.88
2023-01-13T17:01:39.946Z,100124.28
2023-01-13T17:04:09.170Z,100143.25
2023-01-13T17:06:54.594Z,100137.91
2023-01-13T17:09:24.272Z,100140.53
2023-01-13T17:11:51.791Z,100149.59
2023-01-13T17:14:22.931Z,100144.19
2023-01-13T17:16:52.137Z,100150.28
2023-01-13T17:19:20.957Z,100155.59
2023-01-13T17:21:48.288Z,100157.28
2023-01-13T17:24:15.519Z,100157.13
2023-01-13T17:26:47.509Z,100149.25
2023-01-13T17:29:17.401Z,100157.88
2023-01-13T17:31:44.893Z,100159.81
2023-01-13T17:34:12.876Z,100159.81
2023-01-13T17:36:40.220Z,100157.94
2023-01-13T17:39:07.476Z,100165.88
2023-01-13T17:41:34.713Z,100168.31
2023-01-13T17:44:01.988Z,100165.75
2023-01-13T17:46:29.217Z,100167.28
2023-01-13T17:48:56.434Z,100173.53
2023-01-13T17:51:25.185Z,100168.50
2023-01-13T17:53:53.823Z,100169.44
2023-01-13T17:56:21.126Z,100177.53
2023-01-13T17:58:48.505Z,100183.63
2023-01-13T18:01:19.181Z,100183.34
2023-01-13T18:03:46.637Z,100188.78
2023-01-13T18:06:22.565Z,100187.63
2023-01-13T18:08:50.378Z,100187.06
2023-01-13T18:11:18.988Z,100192.22
2023-01-13T18:13:51.349Z,100203.47
2023-01-13T18:16:19.661Z,100204.34
2023-01-13T18:18:48.786Z,100208.16
2023-01-13T18:21:45.243Z,100203.81
2023-01-13T18:24:33.067Z,100216.88
2023-01-13T18:27:19.041Z,100213.31
2023-01-13T18:29:47.026Z,100213.31
2023-01-13T18:32:14.598Z,100221.28
2023-01-13T18:34:42.208Z,100220.44
2023-01-13T18:37:10.965Z,100227.41
2023-01-13T18:39:38.143Z,100217.94
2023-01-13T18:42:24.987Z,100225.00
2023-01-13T18:44:53.259Z,100227.41
2023-01-13T18:47:20.835Z,100220.34
2023-01-13T18:49:48.855Z,100237.00
2023-01-13T18:52:16.112Z,100242.16
2023-01-13T18:54:43.328Z,100247.44
2023-01-13T18:57:10.989Z,100248.28
2023-01-13T18:59:38.390Z,100253.31
2023-01-13T19:02:09.509Z,100257.91
2023-01-13T19:04:36.817Z,100264.13
2023-01-13T19:07:05.074Z,100286.66
2023-01-13T19:09:33.029Z,100275.34
2023-01-13T19:12:01.388Z,100273.72
2023-01-13T19:14:34.848Z,100272.91
2023-01-13T19:17:09.447Z,100280.78
2023-01-13T19:19:40.867Z,100284.13
2023-01-13T19:22:08.642Z,100283.31
2023-01-13T19:24:35.889Z,100283.31
2023-01-13T19:27:03.186Z,100286.75
2023-01-13T19:29:33.170Z,100285.94
2023-01-13T19:32:01.174Z,100289.28
2023-01-13T19:34:28.634Z,100294.72
2023-01-13T19:36:56.158Z,100298.09
2023-01-13T19:39:23.839Z,100295.72
2023-01-13T19:42:10.193Z,100298.44
2023-01-13T19:44:55.852Z,100292.59
2023-01-13T19:47:23.314Z,100313.28
2023-01-13T19:49:50.629Z,100306.47
2023-01-13T19:52:17.992Z,100317.63
2023-01-13T19:54:47.362Z,100309.84
2023-01-13T19:57:14.997Z,100322.84
2023-01-13T19:59:42.729Z,100319.75
2023-01-13T20:02:27.739Z,100320.78
2023-01-13T20:05:00.445Z,100331.38
2023-01-13T20:07:29.943Z,100323.75
2023-01-13T20:09:57.502Z,100330.03
2023-01-13T20:12:25.739Z,100335.00
2023-01-13T20:14:53.143Z,100336.69
2023-01-13T20:17:21.677Z,100345.22
2023-01-13T20:19:49.031Z,100340.91
2023-01-13T20:22:16.699Z,100341.31
2023-01-13T20:24:43.975Z,100364.00
2023-01-13T20:27:11.216Z,100364.91
2023-01-13T20:29:38.567Z,100365.78
2023-01-13T20:32:05.908Z,100374.53
2023-01-13T20:34:33.143Z,100365.19
2023-01-13T20:37:00.468Z,100373.91
2023-01-13T20:39:27.860Z,100357.50
2023-01-13T20:42:14.199Z,100362.91
2023-01-13T20:44:41.668Z,100375.84
2023-01-13T20:47:09.070Z,100370.41
2023-01-13T20:49:37.064Z,100375.84
2023-01-13T20:52:09.432Z,100378.56
2023-01-13T20:54:37.383Z,100382.31
2023-01-13T20:57:05.559Z,100377.09
2023-01-13T20:59:32.728Z,100383.13
2023-01-13T21:02:00.109Z,100390.19
2023-01-13T21:04:28.821Z,100395.44
2023-01-13T21:06:58.672Z,100386.72
2023-01-13T21:09:27.244Z,100397.97
2023-01-13T21:12:13.877Z,100406.44
2023-01-13T21:15:00.224Z,100402.84
2023-01-13T21:17:50.884Z,100416.72
2023-01-13T21:20:18.360Z,100407.03
2023-01-13T21:22:49.121Z,100418.16
2023-01-13T21:25:18.024Z,100410.22
2023-01-13T21:27:46.535Z,100410.91
2023-01-13T21:30:15.405Z,100417.16
2023-01-13T21:32:45.408Z,100410.22
2023-01-13T21:35:13.965Z,100424.00
2023-01-13T21:37:42.434Z,100411.81
2023-01-13T21:40:12.014Z,100418.03
2023-01-13T21:42:57.782Z,100432.19
2023-01-13T21:45:44.083Z,100415.50
2023-01-13T21:48:11.357Z,100415.56
2023-01-13T21:50:38.715Z,100417.34
2023-01-13T21:53:07.985Z,100416.56
2023-01-13T21:55:36.778Z,100424.34
2023-01-13T21:58:14.693Z,100428.75
2023-01-13T22:00:44.043Z,100437.75
2023-01-13T22:03:12.703Z,100427.47
2023-01-13T22:05:40.467Z,100432.84
2023-01-13T22:08:08.364Z,100436.31
2023-01-13T22:10:35.813Z,100435.25
2023-01-13T22:13:23.839Z,100426.59
2023-01-13T22:15:51.213Z,100442.81
2023-01-13T22:18:18.565Z,100438.66
2023-01-13T22:20:46.047Z,100438.81
2023-01-13T22:23:13.526Z,100444.06
2023-01-13T22:25:40.776Z,100440.28
2023-01-13T22:28:09.549Z,100441.25
2023-01-13T22:30:37.087Z,100451.13
2023-01-13T22:33:04.332Z,100445.00
2023-01-13T22:35:31.652Z,100445.09
2023-01-13T22:37:59.081Z,100447.03
2023-01-13T22:40:26.288Z,100458.59
2023-01-13T22:42:53.516Z,100464.03
2023-01-13T22:45:20.792Z,100464.09
2023-01-13T22:47:49.609Z,100470.19
2023-01-13T22:50:20.829Z,100476.41
2023-01-13T22:52:48.431Z,100480.72
2023-01-13T22:55:15.735Z,100476.06
2023-01-13T22:57:48.026Z,100466.13
2023-01-13T23:00:18.806Z,100482.53
2023-01-13T23:02:46.517Z,100478.84
2023-01-13T23:05:13.916Z,100485.56
2023-01-13T23:07:41.291Z,100489.00
2023-01-13T23:10:09.113Z,100483.56
2023-01-13T23:12:36.625Z,100488.78
2023-01-13T23:15:05.188Z,100486.06
2023-01-13T23:17:32.448Z,100493.97
2023-01-13T23:19:59.714Z,100500.72
2023-01-13T23:22:26.953Z,100495.50
2023-01-13T23:24:54.121Z,100495.66
2023-01-13T23:27:21.382Z,100504.22
2023-01-13T23:29:49.160Z,100508.59
2023-01-13T23:32:16.326Z,100505.97
2023-01-13T23:34:43.568Z,100518.00
2023-01-13T23:37:10.784Z,100515.22
2023-01-13T23:39:37.992Z,100526.53
2023-01-13T23:42:05.281Z,100535.25
2023-01-13T23:44:32.516Z,100529.38
2023-01-13T23:46:59.758Z,100531.53
2023-01-13T23:49:26.996Z,100527.53
2023-01-13T23:51:54.291Z,100527.75
2023-01-13T23:54:21.675Z,100521.81
2023-01-13T23:56:50.591Z,100523.72
2023-01-13T23:59:18.061Z,100525.53
